Time;durP1;ratioP1;P1;durP2;ratioP2;P2;SDS_P1;SDS_P2;PMS_P1;PMS_P2;Temp;Humidity;BMP_temperature;BMP_pressure;BME280_temperature;BME280_humidity;BME280_pressure;Samples;Min_cycle;Max_cycle;Signal;HPM_P1;HPM_P2
2022/09/23 00:00:32;;;;;;;4.53;4.13;;;6.80;99.90;;;;;;5072423;28;20031;-74
2022/09/23 00:02:58;;;;;;;5.25;4.15;;;6.90;99.90;;;;;;5068886;28;20549;-72
2022/09/23 00:05:28;;;;;;;4.40;4.00;;;7.00;99.90;;;;;;5062572;28;20104;-72
2022/09/23 00:07:54;;;;;;;4.63;4.10;;;7.00;99.90;;;;;;5052762;28;20094;-72
2022/09/23 00:10:24;;;;;;;5.45;4.10;;;6.80;99.90;;;;;;5054414;28;20092;-72
2022/09/23 00:12:50;;;;;;;4.88;4.38;;;6.80;99.90;;;;;;5053141;28;20470;-72
2022/09/23 00:15:16;;;;;;;4.68;4.18;;;6.80;99.90;;;;;;5068595;28;20026;-72
2022/09/23 00:17:42;;;;;;;4.18;3.50;;;6.80;99.90;;;;;;5073276;28;20787;-72
2022/09/23 00:20:08;;;;;;;3.97;3.58;;;6.90;99.90;;;;;;5073825;28;20036;-73
2022/09/23 00:22:35;;;;;;;4.63;3.90;;;6.80;99.90;;;;;;5074197;28;20052;-73
2022/09/23 00:25:01;;;;;;;4.43;3.92;;;6.90;99.90;;;;;;5072927;28;20059;-72
2022/09/23 00:27:28;;;;;;;4.50;3.83;;;6.70;99.90;;;;;;5072364;28;20120;-72
2022/09/23 00:29:54;;;;;;;4.90;3.95;;;6.60;99.90;;;;;;5074185;28;20021;-72
2022/09/23 00:32:19;;;;;;;4.07;3.67;;;6.80;99.90;;;;;;5074083;28;20021;-72
2022/09/23 00:34:46;;;;;;;3.70;3.40;;;6.70;99.90;;;;;;5074151;28;20063;-72
2022/09/23 00:37:12;;;;;;;3.35;3.03;;;6.80;99.90;;;;;;5077492;28;20021;-72
2022/09/23 00:39:38;;;;;;;3.53;3.22;;;6.90;99.90;;;;;;5053853;28;20025;-73
2022/09/23 00:42:04;;;;;;;3.58;3.33;;;6.90;99.90;;;;;;5058382;28;20508;-73
2022/09/23 00:44:53;;;;;;;3.50;3.17;;;6.80;99.90;;;;;;5073846;28;20424;-72
2022/09/23 00:47:32;;;;;;;6.35;3.50;;;6.80;99.90;;;;;;5062503;28;20032;-73
2022/09/23 00:50:12;;;;;;;4.85;3.33;;;6.80;99.90;;;;;;5067335;28;20074;-74
2022/09/23 00:52:38;;;;;;;3.60;3.30;;;6.70;99.90;;;;;;5067690;28;20056;-73
2022/09/23 00:55:10;;;;;;;4.75;3.60;;;6.80;99.90;;;;;;5061887;28;20101;-73
2022/09/23 00:57:37;;;;;;;3.55;3.17;;;6.80;99.90;;;;;;5060066;28;20495;-73
2022/09/23 01:00:05;;;;;;;6.05;3.80;;;6.50;99.90;;;;;;5065354;28;20086;-75
2022/09/23 01:02:31;;;;;;;4.47;3.65;;;6.50;99.90;;;;;;5066186;28;20021;-75
2022/09/23 01:04:57;;;;;;;4.93;3.78;;;6.50;99.90;;;;;;5063022;28;20066;-75
2022/09/23 01:07:23;;;;;;;4.55;3.95;;;6.50;99.90;;;;;;5058117;28;20075;-76
2022/09/23 01:09:49;;;;;;;4.90;4.20;;;6.60;99.90;;;;;;5061473;28;20056;-76
2022/09/23 01:12:34;;;;;;;4.57;4.18;;;6.60;99.90;;;;;;5060578;28;20017;-76
2022/09/23 01:15:20;;;;;;;5.43;4.22;;;7.30;99.90;;;;;;5062986;28;20529;-76
2022/09/23 01:17:49;;;;;;;;;;;6.50;99.90;;;;;;5059277;28;20086;-75
2022/09/23 01:20:33;;;;;;;4.05;3.67;;;6.50;99.90;;;;;;5059654;28;19918;-75
2022/09/23 01:23:20;;;;;;;3.95;3.55;;;6.40;99.90;;;;;;5063586;28;20033;-76
2022/09/23 01:26:03;;;;;;;5.97;4.55;;;6.30;99.90;;;;;;5066557;28;20483;-75
2022/09/23 01:28:52;;;;;;;4.50;3.75;;;6.30;99.90;;;;;;5066131;28;20032;-75
2022/09/23 01:31:35;;;;;;;5.07;4.00;;;6.20;99.90;;;;;;5051834;28;20111;-75
2022/09/23 01:34:18;;;;;;;4.20;3.80;;;6.30;99.90;;;;;;5059945;28;20538;-74
2022/09/23 01:37:12;;;;;;;4.43;4.03;;;6.30;99.90;;;;;;5067118;28;20116;-74
2022/09/23 01:39:42;;;;;;;4.20;3.80;;;6.30;99.90;;;;;;5064799;28;20111;-74
2022/09/23 01:42:16;;;;;;;4.22;3.75;;;6.30;99.90;;;;;;5057858;28;20033;-72
2022/09/23 01:44:41;;;;;;;5.05;4.10;;;6.30;99.90;;;;;;5056209;28;20029;-72
2022/09/23 01:47:13;;;;;;;4.97;4.47;;;6.20;99.90;;;;;;5052335;28;20052;-72
2022/09/23 01:49:57;;;;;;;4.70;4.30;;;6.30;99.90;;;;;;5052543;28;20028;-73
2022/09/23 01:52:34;;;;;;;6.07;5.50;;;6.20;99.90;;;;;;5052559;28;20025;-72
2022/09/23 01:55:09;;;;;;;4.65;4.25;;;5.80;99.90;;;;;;5052488;28;20028;-73
2022/09/23 01:57:43;;;;;;;4.93;4.53;;;5.70;99.90;;;;;;5052017;28;20071;-72
2022/09/23 02:00:13;;;;;;;4.80;4.32;;;5.90;99.90;;;;;;5052362;28;20036;-72
2022/09/23 02:02:48;;;;;;;5.03;4.03;;;5.90;99.90;;;;;;5051033;28;20032;-72
2022/09/23 02:05:32;;;;;;;4.70;4.25;;;5.90;99.90;;;;;;5051036;28;20552;-74
2022/09/23 02:08:04;;;;;;;6.45;4.70;;;5.80;99.90;;;;;;5050677;28;20401;-72
2022/09/23 02:10:51;;;;;;;5.82;5.30;;;5.90;99.90;;;;;;5052169;28;20051;-73
2022/09/23 02:13:27;;;;;;;5.00;4.53;;;5.80;99.90;;;;;;5052101;28;20427;-73
2022/09/23 02:15:57;;;;;;;6.13;5.07;;;5.80;99.90;;;;;;5052190;28;20025;-73
2022/09/23 02:18:31;;;;;;;5.05;4.43;;;5.80;99.90;;;;;;5050565;28;20032;-73
2022/09/23 02:21:03;;;;;;;5.38;4.85;;;5.90;99.90;;;;;;5057995;28;20424;-73
2022/09/23 02:23:44;;;;;;;5.10;4.70;;;5.70;99.90;;;;;;5057266;28;20483;-73
2022/09/23 02:26:32;;;;;;;6.72;4.90;;;5.70;99.90;;;;;;5061965;28;20085;-73
2022/09/23 02:29:15;;;;;;;6.40;5.72;;;5.70;99.90;;;;;;5093057;22;20558;-74
2022/09/23 02:31:56;;;;;;;5.93;5.38;;;5.60;99.90;;;;;;5072193;28;20074;-74
2022/09/23 02:34:31;;;;;;;5.45;4.95;;;5.60;99.90;;;;;;5088588;28;20024;-74
2022/09/23 02:37:08;;;;;;;7.80;7.10;;;5.50;99.90;;;;;;5091798;28;20122;-74
2022/09/23 02:39:51;;;;;;;5.90;5.28;;;5.40;99.90;;;;;;5081773;28;20020;-74
2022/09/23 02:42:24;;;;;;;5.63;5.13;;;5.40;99.90;;;;;;5069894;28;20074;-75
2022/09/23 02:44:49;;;;;;;6.25;5.75;;;5.30;99.90;;;;;;5081845;28;20024;-74
2022/09/23 02:47:19;;;;;;;7.50;6.80;;;5.50;99.90;;;;;;5079157;28;20025;-73
2022/09/23 02:49:44;;;;;;;7.80;5.60;;;5.50;99.90;;;;;;5070386;28;20035;-73
2022/09/23 02:52:12;;;;;;;6.25;5.20;;;5.50;99.90;;;;;;5083436;28;20380;-73
2022/09/23 02:54:39;;;;;;;5.80;5.28;;;5.50;99.90;;;;;;5071936;28;20049;-74
2022/09/23 02:57:07;;;;;;;6.40;5.80;;;5.40;99.90;;;;;;5083717;28;20472;-73
2022/09/23 02:59:34;;;;;;;7.35;6.22;;;5.50;99.90;;;;;;5072603;28;20059;-73
2022/09/23 03:02:25;;;;;;;6.28;5.72;;;5.50;99.90;;;;;;5071569;28;20017;-73
2022/09/23 03:04:57;;;;;;;9.07;5.88;;;5.50;99.90;;;;;;5060806;28;20020;-72
2022/09/23 03:07:46;;;;;;;6.88;6.18;;;5.50;99.90;;;;;;5069862;28;20078;-72
2022/09/23 03:10:27;;;;;;;6.63;5.93;;;5.60;99.90;;;;;;5084638;28;20031;-73
2022/09/23 03:13:18;;;;;;;6.53;5.85;;;5.60;99.90;;;;;;5059915;28;20021;-73
2022/09/23 03:15:59;;;;;;;8.75;6.63;;;5.50;99.90;;;;;;5090127;28;20028;-73
2022/09/23 03:18:49;;;;;;;8.55;7.43;;;5.50;99.90;;;;;;5089972;28;20082;-73
2022/09/23 03:21:33;;;;;;;13.57;6.20;;;5.40;99.90;;;;;;5081116;28;20473;-73
2022/09/23 03:24:03;;;;;;;6.53;5.85;;;5.30;99.90;;;;;;5091213;28;20048;-72
2022/09/23 03:26:31;;;;;;;5.78;5.18;;;5.20;99.90;;;;;;5091412;28;20115;-74
2022/09/23 03:29:01;;;;;;;6.15;5.65;;;5.30;99.90;;;;;;5091155;28;20485;-73
2022/09/23 03:31:28;;;;;;;6.38;5.78;;;5.30;99.90;;;;;;5077761;28;20062;-72
2022/09/23 03:33:57;;;;;;;5.97;5.45;;;5.30;99.90;;;;;;5070594;28;20035;-72
2022/09/23 03:36:50;;;;;;;5.95;5.20;;;5.20;99.90;;;;;;5071151;28;20025;-72
2022/09/23 03:39:57;;;;;;;7.68;5.90;;;5.10;99.90;;;;;;5071109;28;20103;-72
2022/09/23 03:42:25;;;;;;;6.80;6.10;;;5.20;99.90;;;;;;5039690;28;20029;-73
2022/09/23 03:44:56;;;;;;;6.32;5.78;;;5.10;99.90;;;;;;5075595;28;20031;-73
2022/09/23 03:47:24;;;;;;;7.75;6.50;;;5.10;99.90;;;;;;5091082;28;20021;-73
2022/09/23 03:49:50;;;;;;;12.02;10.88;;;5.10;99.90;;;;;;5072322;28;20041;-73
2022/09/23 03:52:18;;;;;;;9.70;8.70;;;5.10;99.90;;;;;;5070188;28;20386;-73
2022/09/23 03:54:44;;;;;;;10.38;8.65;;;5.00;99.90;;;;;;5073374;28;20025;-72
2022/09/23 03:57:11;;;;;;;10.00;8.98;;;5.00;99.90;;;;;;5087118;28;20056;-73
2022/09/23 03:59:37;;;;;;;9.90;7.47;;;5.00;99.90;;;;;;5081428;28;20020;-73
2022/09/23 04:02:06;;;;;;;10.32;9.25;;;5.00;99.90;;;;;;5080875;28;20031;-74
2022/09/23 04:04:34;;;;;;;10.15;7.80;;;5.00;99.90;;;;;;5088166;28;20043;-74
2022/09/23 04:07:00;;;;;;;11.50;10.48;;;5.00;99.90;;;;;;5087852;28;20029;-74
2022/09/23 04:09:25;;;;;;;9.43;8.52;;;4.80;99.90;;;;;;5074441;28;20082;-74
2022/09/23 04:11:52;;;;;;;7.68;6.97;;;4.40;99.90;;;;;;5073286;28;20029;-74
2022/09/23 04:14:19;;;;;;;14.32;13.13;;;4.30;99.90;;;;;;5066253;28;20024;-75
2022/09/23 04:16:45;;;;;;;9.30;8.55;;;4.20;99.90;;;;;;5081145;28;20086;-75
2022/09/23 04:19:12;;;;;;;7.80;7.00;;;4.30;99.90;;;;;;5060677;28;20025;-74
2022/09/23 04:21:39;;;;;;;9.32;8.43;;;4.40;99.90;;;;;;5073090;28;20052;-72
2022/09/23 04:24:05;;;;;;;9.30;8.50;;;4.40;99.90;;;;;;5074351;28;20074;-73
2022/09/23 04:26:31;;;;;;;9.10;7.35;;;4.40;99.90;;;;;;5074146;28;20086;-73
2022/09/23 04:28:57;;;;;;;8.38;7.53;;;4.50;99.90;;;;;;5080988;28;20035;-72
2022/09/23 04:31:23;;;;;;;10.88;9.80;;;4.50;99.90;;;;;;5080693;28;20020;-73
2022/09/23 04:33:49;;;;;;;12.40;11.27;;;4.50;99.90;;;;;;5074141;28;20035;-72
2022/09/23 04:36:15;;;;;;;8.55;7.70;;;4.40;99.90;;;;;;5072883;28;20033;-74
2022/09/23 04:38:48;;;;;;;10.15;9.25;;;4.50;99.90;;;;;;5072581;28;20089;-74
2022/09/23 04:41:15;;;;;;;9.75;8.57;;;4.50;99.90;;;;;;5088519;28;20023;-73
2022/09/23 04:43:41;;;;;;;9.63;8.13;;;4.50;99.90;;;;;;5094161;28;20020;-74
2022/09/23 04:46:09;;;;;;;11.05;10.10;;;4.50;99.90;;;;;;5077682;28;20371;-73
2022/09/23 04:48:37;;;;;;;11.32;10.23;;;4.60;99.90;;;;;;5082138;28;20024;-73
2022/09/23 04:51:08;;;;;;;11.10;10.13;;;4.70;99.90;;;;;;5078011;28;20021;-73
2022/09/23 04:53:39;;;;;;;10.60;8.43;;;4.50;99.90;;;;;;5073334;28;20028;-73
2022/09/23 04:56:11;;;;;;;9.73;8.90;;;4.50;99.90;;;;;;5087080;28;20032;-73
2022/09/23 04:58:37;;;;;;;10.55;9.55;;;4.50;99.90;;;;;;5073279;28;20025;-72
2022/09/23 05:01:10;;;;;;;10.75;9.70;;;4.50;99.90;;;;;;5087014;28;20107;-73
2022/09/23 05:03:36;;;;;;;11.23;10.13;;;4.40;99.90;;;;;;5072657;28;20092;-72
2022/09/23 05:06:02;;;;;;;11.75;10.57;;;4.50;99.90;;;;;;5072382;28;20103;-72
2022/09/23 05:08:28;;;;;;;12.65;11.40;;;4.50;99.90;;;;;;5071598;28;20082;-73
2022/09/23 05:10:58;;;;;;;10.95;9.75;;;4.40;99.90;;;;;;5073286;28;20013;-73
2022/09/23 05:13:23;;;;;;;11.38;10.27;;;4.50;99.90;;;;;;5084508;28;20424;-74
2022/09/23 05:15:55;;;;;;;11.02;9.98;;;4.30;99.90;;;;;;5092176;28;20020;-74
2022/09/23 05:18:20;;;;;;;13.18;11.50;;;4.30;99.90;;;;;;5093129;28;20020;-74
2022/09/23 05:20:52;;;;;;;11.43;10.43;;;4.30;99.90;;;;;;5073856;28;20367;-73
2022/09/23 05:23:18;;;;;;;12.35;11.07;;;4.40;99.90;;;;;;5071939;28;20025;-72
2022/09/23 05:25:44;;;;;;;10.00;9.10;;;4.40;99.90;;;;;;5092090;28;20027;-72
2022/09/23 05:28:09;;;;;;;10.05;9.00;;;4.50;99.90;;;;;;5092942;28;20114;-74
2022/09/23 05:30:35;;;;;;;9.77;8.00;;;4.50;99.90;;;;;;5091696;28;20031;-73
2022/09/23 05:33:01;;;;;;;11.05;9.23;;;4.60;99.90;;;;;;5079697;28;20035;-72
2022/09/23 05:35:27;;;;;;;9.10;8.25;;;4.60;99.90;;;;;;5060154;28;20021;-73
2022/09/23 05:37:52;;;;;;;11.25;10.20;;;4.80;99.90;;;;;;5086570;28;20053;-73
2022/09/23 05:40:18;;;;;;;12.60;11.45;;;4.70;99.90;;;;;;5093022;28;20035;-73
2022/09/23 05:42:43;;;;;;;12.88;11.57;;;4.50;99.90;;;;;;5081600;28;20029;-73
2022/09/23 05:45:09;;;;;;;11.65;10.23;;;4.50;99.90;;;;;;5092934;28;20046;-73
2022/09/23 05:47:35;;;;;;;11.30;10.15;;;4.60;99.90;;;;;;5092560;28;20031;-73
2022/09/23 05:50:00;;;;;;;15.77;14.13;;;4.80;99.90;;;;;;5092802;28;20441;-75
2022/09/23 05:52:26;;;;;;;15.90;14.38;;;4.90;99.90;;;;;;5091409;28;20020;-73
2022/09/23 05:54:52;;;;;;;16.55;13.35;;;4.80;99.90;;;;;;5086091;28;20020;-73
2022/09/23 05:57:18;;;;;;;13.70;12.40;;;4.70;99.90;;;;;;5072155;28;20024;-74
2022/09/23 05:59:46;;;;;;;15.95;14.35;;;4.90;99.90;;;;;;5071026;28;20027;-73
2022/09/23 06:02:13;;;;;;;13.27;12.07;;;5.10;99.90;;;;;;5070903;28;20028;-72
2022/09/23 06:04:39;;;;;;;15.55;13.68;;;5.40;99.90;;;;;;5071009;28;20033;-73
2022/09/23 06:07:04;;;;;;;21.52;19.48;;;5.40;99.90;;;;;;5071968;28;20436;-73
2022/09/23 06:09:30;;;;;;;19.15;17.35;;;5.50;99.90;;;;;;5072150;28;20056;-74
2022/09/23 06:11:55;;;;;;;17.08;15.48;;;5.60;99.90;;;;;;5084863;28;20027;-73
2022/09/23 06:14:21;;;;;;;14.40;13.10;;;5.60;99.90;;;;;;5091078;28;20028;-74
2022/09/23 06:16:46;;;;;;;13.40;12.10;;;5.60;99.90;;;;;;5077755;28;20043;-72
2022/09/23 06:19:12;;;;;;;15.20;13.70;;;5.60;99.90;;;;;;5071843;28;20044;-71
2022/09/23 06:21:39;;;;;;;16.08;14.52;;;5.70;99.90;;;;;;5072005;28;20394;-73
2022/09/23 06:24:06;;;;;;;16.90;14.68;;;5.50;99.90;;;;;;5092077;28;20145;-73
2022/09/23 06:26:33;;;;;;;22.10;19.67;;;5.70;99.90;;;;;;5093197;28;20086;-73
2022/09/23 06:29:01;;;;;;;16.05;14.35;;;5.80;99.90;;;;;;5060665;28;20468;-73
2022/09/23 06:31:27;;;;;;;14.38;12.95;;;6.00;99.90;;;;;;5071848;28;20027;-73
2022/09/23 06:33:53;;;;;;;14.88;13.57;;;6.10;99.90;;;;;;5071659;28;20021;-72
2022/09/23 06:36:19;;;;;;;13.52;11.93;;;6.00;99.90;;;;;;5058153;28;20100;-73
2022/09/23 06:38:48;;;;;;;11.95;10.82;;;6.10;99.90;;;;;;5071321;28;20021;-73
2022/09/23 06:41:13;;;;;;;14.05;12.60;;;6.20;99.90;;;;;;5086574;28;20020;-73
2022/09/23 06:43:39;;;;;;;13.60;12.40;;;6.20;99.90;;;;;;5081565;28;20106;-73
2022/09/23 06:46:06;;;;;;;13.57;12.10;;;6.20;99.90;;;;;;5091695;28;20024;-73
2022/09/23 06:48:35;;;;;;;12.02;10.75;;;6.40;99.90;;;;;;5091529;28;20066;-73
2022/09/23 06:51:03;;;;;;;14.15;12.82;;;6.40;99.90;;;;;;5089306;28;20477;-72
2022/09/23 06:53:33;;;;;;;13.25;11.90;;;6.40;99.90;;;;;;5071576;28;20389;-73
2022/09/23 06:56:01;;;;;;;12.50;11.40;;;6.50;99.90;;;;;;5071509;28;20035;-73
2022/09/23 06:58:27;;;;;;;12.27;11.18;;;6.70;99.90;;;;;;5071491;28;20013;-73
2022/09/23 07:00:53;;;;;;;11.60;10.60;;;6.90;99.90;;;;;;5073970;28;20040;-73
2022/09/23 07:03:19;;;;;;;10.93;9.93;;;7.00;99.90;;;;;;5082369;28;20072;-73
2022/09/23 07:05:45;;;;;;;12.50;11.43;;;7.10;99.90;;;;;;5070631;28;20466;-72
2022/09/23 07:08:10;;;;;;;12.95;11.75;;;7.20;99.90;;;;;;5077003;28;20047;-73
2022/09/23 07:10:36;;;;;;;10.82;10.02;;;7.20;99.90;;;;;;5090006;28;20039;-74
2022/09/23 07:13:05;;;;;;;10.70;9.65;;;7.30;99.90;;;;;;5071299;28;20043;-73
2022/09/23 07:15:32;;;;;;;10.93;9.82;;;7.40;99.90;;;;;;5066423;28;20020;-74
2022/09/23 07:17:58;;;;;;;10.88;9.77;;;7.50;99.90;;;;;;5070074;28;20036;-74
2022/09/23 07:20:23;;;;;;;9.73;8.82;;;7.70;99.90;;;;;;5072128;28;20070;-73
2022/09/23 07:22:51;;;;;;;8.98;8.18;;;7.80;99.90;;;;;;5069891;28;20090;-74
2022/09/23 07:25:20;;;;;;;9.30;8.35;;;7.90;99.90;;;;;;5085215;28;20050;-74
2022/09/23 07:27:48;;;;;;;9.20;8.30;;;8.00;99.90;;;;;;5078025;28;20503;-71
2022/09/23 07:30:14;;;;;;;9.32;8.32;;;8.10;99.90;;;;;;5076352;28;20036;-73
2022/09/23 07:32:40;;;;;;;9.07;8.18;;;8.30;99.90;;;;;;5093828;28;20534;-74
2022/09/23 07:35:09;;;;;;;9.18;8.23;;;8.40;99.90;;;;;;5077148;28;20017;-73
2022/09/23 07:37:35;;;;;;;9.88;7.75;;;8.50;99.90;;;;;;5074753;28;20044;-73
2022/09/23 07:40:00;;;;;;;8.25;7.45;;;8.70;99.90;;;;;;5078315;28;20458;-73
2022/09/23 07:42:26;;;;;;;8.10;7.25;;;8.80;99.90;;;;;;5086067;28;20402;-72
2022/09/23 07:44:52;;;;;;;7.97;6.57;;;8.90;99.90;;;;;;5074757;28;20024;-72
2022/09/23 07:47:18;;;;;;;9.20;7.38;;;9.00;99.90;;;;;;5086000;28;20181;-72
2022/09/23 07:49:43;;;;;;;9.20;7.68;;;9.10;99.90;;;;;;5073975;28;20537;-74
2022/09/23 07:52:09;;;;;;;7.97;7.00;;;9.20;99.90;;;;;;5074662;28;20469;-74
2022/09/23 07:54:35;;;;;;;7.70;6.90;;;9.40;99.90;;;;;;5074555;28;20016;-72
2022/09/23 07:57:00;;;;;;;7.72;6.90;;;9.50;99.90;;;;;;5070662;28;20031;-73
2022/09/23 07:59:26;;;;;;;13.00;6.32;;;9.60;99.90;;;;;;5077018;28;20034;-73
2022/09/23 08:01:52;;;;;;;7.15;6.45;;;9.80;99.90;;;;;;5085953;28;20032;-73
2022/09/23 08:04:21;;;;;;;7.03;6.38;;;10.00;99.90;;;;;;5094863;28;20366;-73
2022/09/23 08:06:51;;;;;;;7.60;6.00;;;10.10;99.90;;;;;;5094450;28;20016;-74
2022/09/23 08:09:20;;;;;;;8.65;5.80;;;10.40;99.90;;;;;;5080912;28;20031;-74
2022/09/23 08:11:47;;;;;;;6.15;5.57;;;10.40;99.90;;;;;;5094963;28;20024;-74
2022/09/23 08:14:14;;;;;;;5.85;5.25;;;10.60;99.90;;;;;;5075021;28;20096;-73
2022/09/23 08:16:41;;;;;;;5.57;5.07;;;10.70;99.90;;;;;;5074205;28;20037;-74
2022/09/23 08:19:07;;;;;;;5.93;5.32;;;10.80;99.90;;;;;;5074164;28;20099;-74
2022/09/23 08:21:33;;;;;;;5.25;4.70;;;11.10;99.90;;;;;;5087918;28;20449;-73
2022/09/23 08:23:59;;;;;;;5.90;4.63;;;11.20;99.90;;;;;;5094406;28;20493;-73
2022/09/23 08:26:25;;;;;;;5.03;4.60;;;11.30;99.90;;;;;;5093000;28;20028;-74
2022/09/23 08:28:55;;;;;;;4.70;4.28;;;11.40;99.90;;;;;;5092628;28;20028;-74
2022/09/23 08:31:22;;;;;;;7.28;4.22;;;11.50;99.90;;;;;;5079955;28;20021;-74
2022/09/23 08:33:52;;;;;;;5.72;4.75;;;11.70;99.90;;;;;;5081764;28;20401;-74
2022/09/23 08:36:17;;;;;;;5.22;4.72;;;11.90;99.90;;;;;;5079023;28;20024;-74
2022/09/23 08:38:43;;;;;;;5.30;4.75;;;11.90;99.90;;;;;;5072948;28;20043;-73
2022/09/23 08:41:16;;;;;;;4.40;4.00;;;12.10;99.90;;;;;;5073507;28;20028;-74
2022/09/23 08:43:47;;;;;;;4.70;4.07;;;12.20;99.90;;;;;;5073802;28;20032;-74
2022/09/23 08:46:20;;;;;;;4.90;3.58;;;12.40;99.90;;;;;;5075703;28;20103;-75
2022/09/23 08:48:46;;;;;;;4.15;3.17;;;12.50;99.90;;;;;;5083737;28;20457;-74
2022/09/23 08:51:28;;;;;;;5.22;3.38;;;12.50;99.90;;;;;;5070809;28;20107;-75
2022/09/23 08:53:53;;;;;;;6.70;4.10;;;12.50;99.90;;;;;;5077677;28;20016;-74
2022/09/23 08:56:22;;;;;;;3.13;2.83;;;12.60;99.90;;;;;;5098333;22;20039;-77
2022/09/23 08:59:27;;;;;;;4.40;3.50;;;12.80;99.90;;;;;;5053231;28;20033;-75
2022/09/23 09:01:59;;;;;;;3.50;3.20;;;12.70;99.90;;;;;;4990688;28;20456;-77
2022/09/23 09:04:43;;;;;;;3.95;3.05;;;12.90;99.90;;;;;;5052161;28;20102;-76
2022/09/23 09:07:09;;;;;;;4.15;3.00;;;12.80;99.90;;;;;;5032184;28;20112;-75
2022/09/23 09:09:42;;;;;;;3.22;2.92;;;12.80;99.90;;;;;;5044693;28;20597;-77
2022/09/23 09:12:31;;;;;;;3.45;3.00;;;12.90;99.90;;;;;;5046859;28;20028;-76
2022/09/23 09:15:18;;;;;;;3.45;3.00;;;13.10;99.90;;;;;;5045421;28;20028;-76
2022/09/23 09:18:09;;;;;;;4.47;3.20;;;13.10;99.90;;;;;;5044112;28;20410;-77
2022/09/23 09:20:53;;;;;;;6.60;3.15;;;13.30;99.90;;;;;;5048772;28;20029;-79
2022/09/23 09:23:32;;;;;;;4.82;3.35;;;13.40;99.90;;;;;;5047591;28;20060;-76
2022/09/23 09:26:01;;;;;;;3.88;2.80;;;13.40;99.90;;;;;;5046077;28;20033;-79
2022/09/23 09:28:50;;;;;;;3.30;2.90;;;13.60;99.90;;;;;;5055885;28;20033;-79
2022/09/23 09:31:23;;;;;;;3.45;2.72;;;13.90;99.90;;;;;;5046505;28;20021;-76
2022/09/23 09:33:58;;;;;;;2.72;2.53;;;14.20;99.90;;;;;;5039809;28;20024;-74
2022/09/23 09:36:50;;;;;;;3.25;2.60;;;14.00;99.90;;;;;;5036557;28;20022;-74
2022/09/23 09:39:16;;;;;;;4.15;2.25;;;14.00;99.90;;;;;;5033200;28;20360;-74
2022/09/23 09:41:46;;;;;;;3.53;2.90;;;14.10;99.90;;;;;;5049926;28;20035;-75
2022/09/23 09:44:42;;;;;;;3.47;2.70;;;14.10;99.90;;;;;;5040543;28;20096;-76
2022/09/23 09:48:05;;;;;;;2.60;2.20;;;14.30;99.90;;;;;;5060010;28;20017;-76
2022/09/23 09:50:44;;;;;;;2.97;2.53;;;14.30;99.90;;;;;;4952312;28;20385;-76
2022/09/23 09:53:22;;;;;;;3.17;2.65;;;14.50;99.90;;;;;;4952250;29;20110;-73
2022/09/23 09:56:01;;;;;;;3.22;2.53;;;14.60;99.90;;;;;;5006127;28;20514;-76
2022/09/23 09:58:48;;;;;;;2.50;2.28;;;14.70;99.90;;;;;;5049739;28;20548;-76
2022/09/23 10:01:31;;;;;;;2.63;2.42;;;14.90;99.90;;;;;;5051059;28;20028;-76
2022/09/23 10:04:02;;;;;;;2.20;2.00;;;14.90;99.90;;;;;;5039048;28;20021;-77
2022/09/23 10:06:33;;;;;;;2.65;2.40;;;14.90;99.90;;;;;;5042422;28;20029;-76
2022/09/23 10:09:20;;;;;;;4.00;2.50;;;14.90;99.90;;;;;;5034779;28;20147;-76
2022/09/23 10:12:14;;;;;;;3.85;2.80;;;14.80;99.90;;;;;;5040040;28;20105;-75
2022/09/23 10:14:40;;;;;;;3.50;2.03;;;14.70;99.90;;;;;;5036202;28;20053;-75
2022/09/23 10:17:12;;;;;;;2.30;1.98;;;15.10;99.90;;;;;;5036489;28;20021;-75
2022/09/23 10:19:44;;;;;;;3.40;2.60;;;15.30;99.90;;;;;;5031478;28;20100;-75
2022/09/23 10:22:19;;;;;;;2.22;2.00;;;15.30;99.90;;;;;;5049754;28;20020;-76
2022/09/23 10:24:51;;;;;;;3.15;1.88;;;15.40;99.90;;;;;;5038646;28;20403;-76
2022/09/23 10:27:30;;;;;;;5.60;2.50;;;15.30;99.90;;;;;;5036723;28;20074;-75
2022/09/23 10:29:58;;;;;;;2.65;2.03;;;15.50;99.90;;;;;;5050645;28;20017;-75
2022/09/23 10:32:30;;;;;;;2.10;2.00;;;15.80;99.90;;;;;;5051674;28;20056;-75
2022/09/23 10:35:13;;;;;;;2.20;2.00;;;16.00;99.90;;;;;;5037791;28;20051;-75
2022/09/23 10:38:02;;;;;;;2.40;2.20;;;15.80;99.90;;;;;;5037364;28;20025;-76
2022/09/23 10:46:39;;;;;;;2.70;2.25;;;16.20;99.90;;;;;;5051041;28;20158;-76
2022/09/23 10:49:30;;;;;;;2.20;2.10;;;15.90;99.90;;;;;;5042847;28;20025;-75
2022/09/23 10:52:13;;;;;;;2.58;2.17;;;16.00;99.90;;;;;;5035795;28;20021;-76
2022/09/23 10:54:45;;;;;;;2.47;2.08;;;16.00;99.90;;;;;;5048337;28;20052;-75
2022/09/23 10:57:38;;;;;;;2.30;2.10;;;15.80;99.90;;;;;;5045490;28;20029;-76
2022/09/23 11:00:45;;;;;;;3.75;2.00;;;15.60;99.90;;;;;;5040591;28;20406;-76
2022/09/23 11:03:31;;;;;;;2.50;2.30;;;15.60;99.90;;;;;;4970219;28;20082;-76
2022/09/23 11:06:02;;;;;;;3.95;2.42;;;15.50;99.90;;;;;;5035307;28;20417;-76
2022/09/23 11:08:39;;;;;;;2.85;2.33;;;15.40;99.90;;;;;;5038497;28;20029;-76
2022/09/23 11:11:19;;;;;;;4.25;2.22;;;15.50;99.90;;;;;;5049980;28;20025;-75
2022/09/23 11:13:57;;;;;;;4.15;2.20;;;16.00;99.90;;;;;;5035740;28;20028;-78
2022/09/23 11:16:40;;;;;;;3.28;2.53;;;16.20;99.90;;;;;;5030453;28;20029;-77
2022/09/23 11:19:33;;;;;;;2.47;1.95;;;15.90;99.90;;;;;;5043564;28;20032;-77
2022/09/23 11:21:59;;;;;;;3.22;2.30;;;16.00;99.90;;;;;;5047811;28;20502;-77
2022/09/23 11:24:50;;;;;;;2.55;2.35;;;16.00;99.90;;;;;;5048651;28;20021;-77
2022/09/23 11:27:25;;;;;;;2.15;1.95;;;16.00;99.90;;;;;;5036880;28;20028;-77
2022/09/23 11:30:00;;;;;;;3.40;2.67;;;16.40;99.90;;;;;;5038011;28;20108;-77
2022/09/23 11:32:52;;;;;;;4.20;2.05;;;16.60;99.90;;;;;;5042684;28;20406;-78
2022/09/23 11:35:54;;;;;;;2.70;2.30;;;16.60;99.90;;;;;;5032373;28;20029;-77
2022/09/23 11:38:43;;;;;;;2.92;2.10;;;16.50;99.90;;;;;;5048829;28;20021;-77
2022/09/23 11:41:32;;;;;;;2.13;1.92;;;16.50;99.90;;;;;;5036764;28;20032;-76
2022/09/23 11:44:16;;;;;;;2.85;1.92;;;16.40;99.90;;;;;;5041567;28;20032;-75
2022/09/23 11:46:48;;;;;;;2.25;1.85;;;16.20;99.90;;;;;;5031478;28;20060;-77
2022/09/23 11:49:25;;;;;;;3.05;1.85;;;16.70;99.90;;;;;;5030899;28;20125;-76
2022/09/23 11:52:19;;;;;;;2.10;1.90;;;17.30;99.90;;;;;;5042410;28;20020;-76
2022/09/23 11:54:50;;;;;;;2.65;2.05;;;18.30;99.90;;;;;;5043531;28;20025;-77
2022/09/23 11:57:39;;;;;;;2.17;1.98;;;18.50;99.90;;;;;;5030877;28;20033;-74
2022/09/23 12:00:33;;;;;;;4.10;1.95;;;18.20;99.90;;;;;;5040898;28;20514;-77
2022/09/23 12:03:24;;;;;;;2.42;2.22;;;19.20;99.90;;;;;;5053385;28;20021;-76
2022/09/23 12:06:01;;;;;;;3.30;2.15;;;19.30;99.90;;;;;;5049844;28;20025;-76
2022/09/23 12:08:35;;;;;;;2.08;1.73;;;18.60;99.90;;;;;;5050851;28;20029;-76
2022/09/23 12:11:17;;;;;;;2.38;2.17;;;18.90;99.90;;;;;;5030608;28;20383;-76
2022/09/23 12:14:01;;;;;;;4.68;3.53;;;19.10;99.90;;;;;;5032901;28;20021;-76
2022/09/23 12:16:53;;;;;;;2.95;2.00;;;19.30;99.90;;;;;;5053479;28;20029;-75
2022/09/23 12:19:21;;;;;;;2.15;1.73;;;19.50;99.90;;;;;;5041204;28;20487;-76
2022/09/23 12:22:01;;;;;;;2.53;2.30;;;19.90;99.90;;;;;;5048611;28;20033;-77
2022/09/23 12:24:30;;;;;;;3.83;2.13;;;20.60;99.90;;;;;;5053814;28;20032;-78
2022/09/23 12:26:59;;;;;;;2.60;2.30;;;20.30;99.90;;;;;;5053898;28;20048;-76
2022/09/23 12:29:28;;;;;;;2.45;2.25;;;21.70;99.90;;;;;;5054137;28;20017;-76
2022/09/23 12:31:54;;;;;;;3.00;2.60;;;21.50;99.90;;;;;;5049424;28;20084;-77
2022/09/23 12:34:22;;;;;;;2.80;2.45;;;21.50;99.90;;;;;;5045815;28;20025;-76
2022/09/23 12:36:48;;;;;;;2.47;2.20;;;21.50;99.90;;;;;;5040344;28;20032;-77
2022/09/23 12:39:19;;;;;;;4.03;2.20;;;21.90;99.90;;;;;;5042477;28;20420;-77
2022/09/23 12:41:55;;;;;;;2.50;2.20;;;22.70;99.90;;;;;;5046128;28;20040;-77
2022/09/23 12:44:40;;;;;;;2.50;2.30;;;22.80;99.90;;;;;;5047580;28;20021;-76
2022/09/23 12:47:23;;;;;;;2.92;2.10;;;22.00;99.90;;;;;;5049533;28;20520;-77
2022/09/23 12:49:52;;;;;;;2.65;2.25;;;21.70;99.90;;;;;;5040525;28;20386;-77
2022/09/23 12:52:17;;;;;;;2.63;2.38;;;20.80;99.90;;;;;;5040495;28;20424;-76
2022/09/23 12:54:45;;;;;;;2.40;2.20;;;21.20;99.90;;;;;;5047303;28;20053;-77
2022/09/23 12:57:33;;;;;;;2.10;2.00;;;21.60;99.90;;;;;;5045929;28;20114;-76
2022/09/23 13:00:11;;;;;;;2.10;1.85;;;21.30;99.90;;;;;;5042439;28;20035;-76
2022/09/23 13:02:45;;;;;;;2.75;1.90;;;21.30;99.90;;;;;;5040139;28;20044;-77
2022/09/23 13:08:15;;;;;;;1.92;1.73;;;21.50;99.90;;;;;;5041782;28;20052;-76
2022/09/23 13:10:47;;;;;;;2.35;1.98;;;21.80;99.90;;;;;;5048635;28;20025;-77
2022/09/23 13:13:34;;;;;;;2.35;1.80;;;22.90;99.80;;;;;;5052265;28;20060;-78
2022/09/23 13:16:25;;;;;;;3.45;1.90;;;23.00;99.90;;;;;;5039749;28;20026;-75
2022/09/23 13:18:56;;;;;;;4.38;1.83;;;22.50;99.10;;;;;;5045058;28;20021;-75
2022/09/23 13:21:44;;;;;;;2.20;2.00;;;22.60;98.10;;;;;;5036705;28;20022;-76
2022/09/23 13:24:16;;;;;;;1.85;1.75;;;23.30;98.50;;;;;;5046823;28;20425;-76
2022/09/23 13:26:50;;;;;;;2.42;2.00;;;22.40;99.20;;;;;;5044146;28;20021;-76
2022/09/23 13:29:26;;;;;;;2.58;2.00;;;22.20;97.40;;;;;;5053043;28;20020;-75